Time;durP1;ratioP1;P1;durP2;ratioP2;P2;SDS_P1;SDS_P2;PMS_P1;PMS_P2;Temp;Humidity;BMP_temperature;BMP_pressure;BME280_temperature;BME280_humidity;BME280_pressure;Samples;Min_cycle;Max_cycle;Signal;HPM_P1;HPM_P2
2024/01/26 00:01:15;;;;;;;;;14.33;14.33;;;;;;;;5081421;28;9100;-80
2024/01/26 00:03:42;;;;;;;;;11.33;11.33;;;;;;;;5095091;28;9174;-79
2024/01/26 00:06:09;;;;;;;;;15.00;14.33;;;;;;;;5083323;28;9207;-79
2024/01/26 00:08:37;;;;;;;;;11.33;10.00;;;;;;;;5094618;28;9190;-79
2024/01/26 00:11:04;;;;;;;;;12.33;12.33;;;;;;;;5095688;28;9325;-78
2024/01/26 00:13:33;;;;;;;;;17.00;15.33;;;;;;;;5080866;28;9072;-79
2024/01/26 00:16:00;;;;;;;;;18.67;17.00;;;;;;;;5073800;28;9177;-80
2024/01/26 00:18:27;;;;;;;;;17.00;15.00;;;;;;;;5086344;28;9358;-81
2024/01/26 00:20:54;;;;;;;;;16.00;14.67;;;;;;;;5081023;28;9248;-79
2024/01/26 00:23:21;;;;;;;;;14.33;12.33;;;;;;;;5092863;28;9268;-79
2024/01/26 00:25:49;;;;;;;;;16.25;16.25;;;;;;;;5084699;28;9421;-79
2024/01/26 00:28:16;;;;;;;;;15.25;13.50;;;;;;;;5084415;28;9405;-79
2024/01/26 00:30:45;;;;;;;;;12.00;12.00;;;;;;;;5077195;28;9417;-80
2024/01/26 00:33:12;;;;;;;;;14.00;14.00;;;;;;;;5089169;28;9462;-79
2024/01/26 00:35:39;;;;;;;;;10.67;10.67;;;;;;;;5089253;28;9548;-80
2024/01/26 00:38:06;;;;;;;;;13.33;10.33;;;;;;;;5086677;28;10092;-79
2024/01/26 00:40:34;;;;;;;;;14.75;14.75;;;;;;;;5078587;28;9395;-79
2024/01/26 00:43:01;;;;;;;;;9.50;9.50;;;;;;;;5087496;28;9402;-80
2024/01/26 00:45:28;;;;;;;;;14.33;14.33;;;;;;;;5079366;28;10135;-80
2024/01/26 00:47:57;;;;;;;;;7.67;7.67;;;;;;;;5086909;28;9468;-80
2024/01/26 00:50:24;;;;;;;;;13.00;13.00;;;;;;;;5089008;28;9319;-80
2024/01/26 00:52:52;;;;;;;;;11.25;9.00;;;;;;;;5088405;28;9462;-81
2024/01/26 00:55:19;;;;;;;;;14.50;14.50;;;;;;;;5088501;28;9583;-81
2024/01/26 00:57:46;;;;;;;;;11.75;11.75;;;;;;;;5088367;28;9594;-79
2024/01/26 01:00:14;;;;;;;;;12.50;11.25;;;;;;;;5088561;28;9464;-80
2024/01/26 01:02:41;;;;;;;;;13.00;10.25;;;;;;;;5088039;28;9388;-79
2024/01/26 01:05:10;;;;;;;;;13.33;13.33;;;;;;;;5087268;28;10283;-80
2024/01/26 01:07:39;;;;;;;;;12.00;12.00;;;;;;;;5086626;28;9327;-80
2024/01/26 01:10:08;;;;;;;;;14.33;13.00;;;;;;;;5089154;28;9394;-78
2024/01/26 01:12:35;;;;;;;;;12.00;10.33;;;;;;;;5088200;28;9371;-79
2024/01/26 01:15:03;;;;;;;;;11.67;11.67;;;;;;;;5088390;28;9274;-78
2024/01/26 01:17:31;;;;;;;;;13.00;10.00;;;;;;;;5088578;28;10209;-79
2024/01/26 01:19:58;;;;;;;;;9.67;9.67;;;;;;;;5088689;28;10101;-81
2024/01/26 01:22:26;;;;;;;;;16.33;11.67;;;;;;;;5088770;28;9381;-80
2024/01/26 01:24:55;;;;;;;;;8.00;6.00;;;;;;;;5088559;28;9251;-81
2024/01/26 01:27:22;;;;;;;;;14.00;12.33;;;;;;;;5088632;28;9346;-81
2024/01/26 01:29:49;;;;;;;;;16.00;16.00;;;;;;;;5088404;28;9325;-80
2024/01/26 01:32:17;;;;;;;;;12.33;10.33;;;;;;;;5088464;28;9280;-80
2024/01/26 01:34:44;;;;;;;;;9.00;9.00;;;;;;;;5085828;28;9301;-81
2024/01/26 01:37:12;;;;;;;;;14.00;10.00;;;;;;;;5088280;28;9485;-80
2024/01/26 01:39:40;;;;;;;;;9.75;9.75;;;;;;;;5088132;28;9378;-80
2024/01/26 01:42:13;;;;;;;;;10.00;10.00;;;;;;;;5089693;28;9592;-80
2024/01/26 01:44:41;;;;;;;;;11.50;9.00;;;;;;;;5088493;28;9542;-80
2024/01/26 01:47:09;;;;;;;;;11.00;10.00;;;;;;;;5085293;28;9486;-80
2024/01/26 01:49:37;;;;;;;;;13.25;13.25;;;;;;;;5094783;28;9451;-79
2024/01/26 01:52:08;;;;;;;;;13.75;12.25;;;;;;;;5095446;28;9593;-80
2024/01/26 01:54:36;;;;;;;;;14.75;13.00;;;;;;;;5094733;28;9603;-80
2024/01/26 01:57:06;;;;;;;;;15.75;14.00;;;;;;;;5094230;28;9610;-78
2024/01/26 01:59:33;;;;;;;;;13.25;13.25;;;;;;;;5093686;28;9616;-79
2024/01/26 02:02:04;;;;;;;;;12.00;9.00;;;;;;;;5087674;28;9628;-79
2024/01/26 02:04:31;;;;;;;;;13.25;13.25;;;;;;;;5091416;28;9413;-79
2024/01/26 02:06:59;;;;;;;;;10.75;10.75;;;;;;;;5089732;28;9572;-78
2024/01/26 02:09:27;;;;;;;;;13.25;13.25;;;;;;;;5090744;28;9543;-78
2024/01/26 02:11:55;;;;;;;;;13.75;12.25;;;;;;;;5092148;28;9541;-79
2024/01/26 02:14:25;;;;;;;;;11.00;11.00;;;;;;;;5078833;28;10175;-78
2024/01/26 02:16:55;;;;;;;;;9.25;9.25;;;;;;;;5088068;28;9388;-79
2024/01/26 02:19:23;;;;;;;;;8.00;8.00;;;;;;;;5087693;28;10266;-79
2024/01/26 02:21:51;;;;;;;;;8.75;7.25;;;;;;;;5079864;28;9418;-79
2024/01/26 02:24:19;;;;;;;;;13.00;13.00;;;;;;;;5076838;28;9473;-79
2024/01/26 02:26:47;;;;;;;;;17.50;15.00;;;;;;;;5085856;28;9554;-78
2024/01/26 02:29:14;;;;;;;;;14.00;14.00;;;;;;;;5076351;28;9725;-78
2024/01/26 02:31:41;;;;;;;;;13.50;13.50;;;;;;;;5082050;28;9436;-80
2024/01/26 02:34:12;;;;;;;;;16.00;16.00;;;;;;;;5086631;28;10544;-78
2024/01/26 02:36:40;;;;;;;;;18.75;15.75;;;;;;;;5079458;28;9454;-79
2024/01/26 02:39:07;;;;;;;;;12.75;12.75;;;;;;;;5091367;28;9619;-79
2024/01/26 02:41:36;;;;;;;;;15.50;13.75;;;;;;;;5084572;28;9623;-79
2024/01/26 02:44:04;;;;;;;;;18.50;14.50;;;;;;;;5091661;28;10487;-79
2024/01/26 02:46:31;;;;;;;;;12.25;12.25;;;;;;;;5092264;28;10471;-80
2024/01/26 02:48:58;;;;;;;;;19.25;16.25;;;;;;;;5089303;28;9710;-79
2024/01/26 02:51:25;;;;;;;;;16.00;16.00;;;;;;;;5091740;28;9570;-78
2024/01/26 02:53:52;;;;;;;;;13.50;13.50;;;;;;;;5090187;28;9486;-79
2024/01/26 02:56:20;;;;;;;;;17.00;15.00;;;;;;;;5091298;28;9446;-80
2024/01/26 02:58:48;;;;;;;;;17.33;16.00;;;;;;;;5089677;28;9359;-80
2024/01/26 03:01:16;;;;;;;;;14.67;14.33;;;;;;;;5090685;28;9304;-80
2024/01/26 03:03:43;;;;;;;;;18.25;17.00;;;;;;;;5090293;28;9414;-80
2024/01/26 03:06:11;;;;;;;;;17.00;17.00;;;;;;;;5087928;28;9383;-81
2024/01/26 03:08:39;;;;;;;;;20.67;19.00;;;;;;;;5089875;28;9334;-80
2024/01/26 03:11:08;;;;;;;;;9.33;9.33;;;;;;;;5089987;28;9507;-80
2024/01/26 03:13:35;;;;;;;;;18.75;18.75;;;;;;;;5089672;28;9354;-80
2024/01/26 03:16:05;;;;;;;;;18.50;17.00;;;;;;;;5090889;28;10230;-79
2024/01/26 03:18:36;;;;;;;;;18.00;16.75;;;;;;;;5091276;28;9534;-79
2024/01/26 03:21:03;;;;;;;;;14.33;14.33;;;;;;;;5090986;28;9487;-78
2024/01/26 03:23:30;;;;;;;;;20.50;17.50;;;;;;;;5090360;28;9335;-78
2024/01/26 03:25:58;;;;;;;;;17.00;17.00;;;;;;;;5088685;28;9394;-79
2024/01/26 03:28:25;;;;;;;;;15.00;15.00;;;;;;;;5090798;28;9425;-78
2024/01/26 03:30:52;;;;;;;;;17.75;17.75;;;;;;;;5089943;28;9281;-79
2024/01/26 03:33:21;;;;;;;;;15.50;15.50;;;;;;;;5089170;28;9498;-78
2024/01/26 03:35:48;;;;;;;;;16.75;16.75;;;;;;;;5086722;28;9484;-78
2024/01/26 03:38:16;;;;;;;;;17.75;17.00;;;;;;;;5088980;28;9590;-80
2024/01/26 03:40:43;;;;;;;;;17.00;17.00;;;;;;;;5081704;28;9397;-80
2024/01/26 03:43:10;;;;;;;;;15.33;15.33;;;;;;;;5094451;28;9468;-80
2024/01/26 03:45:37;;;;;;;;;15.00;15.00;;;;;;;;5095543;28;9444;-80
2024/01/26 03:48:05;;;;;;;;;16.67;14.00;;;;;;;;5095404;28;9568;-80
2024/01/26 03:50:34;;;;;;;;;15.00;14.25;;;;;;;;5093820;28;9327;-80
2024/01/26 03:53:01;;;;;;;;;17.00;16.25;;;;;;;;5091392;28;9467;-79
2024/01/26 03:55:28;;;;;;;;;21.00;18.25;;;;;;;;5092276;28;9465;-79
2024/01/26 03:57:55;;;;;;;;;14.00;14.00;;;;;;;;5091877;28;9507;-79
2024/01/26 04:00:23;;;;;;;;;17.00;17.00;;;;;;;;5081688;28;9416;-79
2024/01/26 04:02:50;;;;;;;;;18.00;15.67;;;;;;;;5090931;28;9341;-80
2024/01/26 04:05:17;;;;;;;;;13.67;13.67;;;;;;;;5084623;28;9236;-79
2024/01/26 04:07:46;;;;;;;;;12.33;12.33;;;;;;;;5078679;28;9487;-79
2024/01/26 04:10:13;;;;;;;;;14.67;14.67;;;;;;;;5084175;28;9245;-78
2024/01/26 04:12:40;;;;;;;;;13.67;12.00;;;;;;;;5089394;28;9245;-79
2024/01/26 04:15:08;;;;;;;;;17.00;15.00;;;;;;;;5089306;28;9162;-78
2024/01/26 04:17:35;;;;;;;;;19.00;12.67;;;;;;;;5088919;28;9330;-78
2024/01/26 04:20:03;;;;;;;;;13.33;11.33;;;;;;;;5089582;28;9358;-81
2024/01/26 04:22:30;;;;;;;;;16.00;14.33;;;;;;;;5089515;28;9166;-79
2024/01/26 04:25:01;;;;;;;;;17.00;14.67;;;;;;;;5089181;28;9350;-78
2024/01/26 04:27:28;;;;;;;;;18.00;18.00;;;;;;;;5086829;28;9326;-78
2024/01/26 04:29:56;;;;;;;;;18.67;13.33;;;;;;;;5089100;28;10231;-79
2024/01/26 04:32:23;;;;;;;;;14.33;12.67;;;;;;;;5088759;28;9293;-79
2024/01/26 04:34:50;;;;;;;;;13.67;13.67;;;;;;;;5086287;28;9373;-80
2024/01/26 04:37:18;;;;;;;;;14.00;14.00;;;;;;;;5088977;28;9203;-77
2024/01/26 04:39:45;;;;;;;;;13.00;13.00;;;;;;;;5089167;28;9314;-79
2024/01/26 04:42:14;;;;;;;;;8.67;8.67;;;;;;;;5088911;28;9257;-79
2024/01/26 04:44:41;;;;;;;;;14.67;14.67;;;;;;;;5088599;28;9300;-79
2024/01/26 04:47:08;;;;;;;;;11.67;11.67;;;;;;;;5078140;28;9298;-79
2024/01/26 04:49:38;;;;;;;;;9.00;9.00;;;;;;;;5088420;28;9220;-80
2024/01/26 04:52:05;;;;;;;;;16.67;14.00;;;;;;;;5078217;28;9090;-79
2024/01/26 04:54:33;;;;;;;;;15.33;13.67;;;;;;;;5088503;28;9200;-79
2024/01/26 04:57:00;;;;;;;;;14.00;11.67;;;;;;;;5076030;28;9191;-79
2024/01/26 04:59:29;;;;;;;;;9.00;9.00;;;;;;;;5088347;28;9256;-79
2024/01/26 05:01:56;;;;;;;;;11.00;9.33;;;;;;;;5078303;28;9141;-78
2024/01/26 05:04:23;;;;;;;;;13.00;13.00;;;;;;;;5087347;28;9255;-79
2024/01/26 05:06:51;;;;;;;;;9.00;9.00;;;;;;;;5090209;28;9305;-79
2024/01/26 05:09:18;;;;;;;;;12.33;11.67;;;;;;;;5087532;28;9174;-77
2024/01/26 05:11:46;;;;;;;;;17.33;13.33;;;;;;;;5088686;28;9759;-78
2024/01/26 05:14:13;;;;;;;;;10.33;10.00;;;;;;;;5086058;28;9115;-79
2024/01/26 05:16:41;;;;;;;;;10.00;10.00;;;;;;;;5073730;28;8950;-80
2024/01/26 05:19:09;;;;;;;;;9.00;9.00;;;;;;;;5085036;28;9000;-80
2024/01/26 05:21:36;;;;;;;;;10.33;9.33;;;;;;;;5089961;28;9888;-81
2024/01/26 05:24:03;;;;;;;;;9.00;9.00;;;;;;;;5091282;28;9097;-79
2024/01/26 05:26:30;;;;;;;;;9.00;9.00;;;;;;;;5085472;28;9006;-80
2024/01/26 05:28:58;;;;;;;;;10.00;9.00;;;;;;;;5090728;28;9173;-82
2024/01/26 05:31:25;;;;;;;;;11.67;10.00;;;;;;;;5074951;28;9077;-80
2024/01/26 05:33:54;;;;;;;;;6.50;6.50;;;;;;;;5090962;28;9025;-79
2024/01/26 05:36:21;;;;;;;;;8.00;8.00;;;;;;;;5086489;28;8978;-80
2024/01/26 05:38:48;;;;;;;;;14.67;9.00;;;;;;;;5066564;28;8877;-80
2024/01/26 05:41:16;;;;;;;;;10.75;8.00;;;;;;;;5088337;28;9106;-81
2024/01/26 05:43:43;;;;;;;;;12.00;10.33;;;;;;;;5087145;28;8866;-82
2024/01/26 05:46:10;;;;;;;;;5.00;5.00;;;;;;;;5087715;28;8951;-80
2024/01/26 05:48:37;;;;;;;;;10.00;10.00;;;;;;;;5087325;28;9855;-83
2024/01/26 05:51:06;;;;;;;;;9.00;9.00;;;;;;;;5088030;28;8870;-80
2024/01/26 05:53:33;;;;;;;;;11.00;7.67;;;;;;;;5088259;28;8938;-80
2024/01/26 05:56:01;;;;;;;;;8.67;8.67;;;;;;;;5088993;28;9129;-81
2024/01/26 05:58:28;;;;;;;;;15.00;9.00;;;;;;;;5091193;28;8924;-81
2024/01/26 06:00:59;;;;;;;;;14.67;12.67;;;;;;;;5091333;28;9118;-81
2024/01/26 06:03:27;;;;;;;;;8.33;8.33;;;;;;;;5091704;28;9007;-81
2024/01/26 06:05:54;;;;;;;;;12.33;9.00;;;;;;;;5092285;28;9191;-78
2024/01/26 06:08:22;;;;;;;;;11.67;11.67;;;;;;;;5091629;28;9086;-77
2024/01/26 06:10:51;;;;;;;;;16.00;10.00;;;;;;;;5092267;28;8889;-74
2024/01/26 06:13:19;;;;;;;;;11.00;9.00;;;;;;;;5092332;28;8952;-77
2024/01/26 06:15:46;;;;;;;;;9.00;9.00;;;;;;;;5092255;28;9045;-75
2024/01/26 06:18:25;;;;;;;;;11.67;11.33;;;;;;;;5091752;28;9008;-77
2024/01/26 06:20:53;;;;;;;;;11.67;11.67;;;;;;;;5040621;28;9050;-78
2024/01/26 06:23:21;;;;;;;;;16.00;11.00;;;;;;;;5081715;28;8928;-77
2024/01/26 06:25:51;;;;;;;;;9.00;9.00;;;;;;;;5087651;28;9054;-77
2024/01/26 06:28:28;;;;;;;;;13.00;9.00;;;;;;;;5083806;28;9667;-75
2024/01/26 06:30:56;;;;;;;;;12.00;8.50;;;;;;;;5085217;28;8963;-76
2024/01/26 06:33:23;;;;;;;;;9.00;9.00;;;;;;;;5091123;28;8884;-76
2024/01/26 06:35:50;;;;;;;;;10.00;10.00;;;;;;;;5091220;28;9039;-75
2024/01/26 06:38:18;;;;;;;;;5.67;5.67;;;;;;;;5093076;28;8939;-77
2024/01/26 06:40:46;;;;;;;;;10.00;8.00;;;;;;;;5078261;28;9767;-77
2024/01/26 06:43:16;;;;;;;;;7.00;7.00;;;;;;;;5090680;28;9074;-77
2024/01/26 06:45:44;;;;;;;;;9.33;8.00;;;;;;;;5078575;28;8858;-76
2024/01/26 06:48:12;;;;;;;;;7.67;7.00;;;;;;;;5089458;28;9830;-76
2024/01/26 06:50:39;;;;;;;;;8.33;6.00;;;;;;;;5090621;28;8939;-76
2024/01/26 06:53:06;;;;;;;;;7.50;7.00;;;;;;;;5088611;28;8963;-76
2024/01/26 06:55:36;;;;;;;;;8.00;7.75;;;;;;;;5090590;28;8860;-76
2024/01/26 06:58:05;;;;;;;;;10.00;7.00;;;;;;;;5090788;28;8957;-77
2024/01/26 07:00:32;;;;;;;;;6.75;6.75;;;;;;;;5081732;28;8854;-74
2024/01/26 07:02:59;;;;;;;;;7.50;7.50;;;;;;;;5090022;28;8866;-77
2024/01/26 07:05:26;;;;;;;;;7.50;7.50;;;;;;;;5090950;28;9008;-77
2024/01/26 07:07:54;;;;;;;;;6.25;6.25;;;;;;;;5090691;28;8872;-76
2024/01/26 07:10:22;;;;;;;;;10.75;9.25;;;;;;;;5092658;28;8849;-78
2024/01/26 07:12:49;;;;;;;;;5.00;5.00;;;;;;;;5088921;28;8860;-78
2024/01/26 07:15:23;;;;;;;;;7.50;6.25;;;;;;;;5085807;28;8842;-76
2024/01/26 07:17:50;;;;;;;;;6.75;5.75;;;;;;;;5093317;28;8838;-75
2024/01/26 07:20:20;;;;;;;;;6.50;6.00;;;;;;;;5094852;28;8874;-76
2024/01/26 07:22:47;;;;;;;;;8.75;7.00;;;;;;;;5088761;28;8939;-77
2024/01/26 07:25:18;;;;;;;;;9.25;8.75;;;;;;;;5084652;28;8837;-78
2024/01/26 07:27:48;;;;;;;;;9.25;9.25;;;;;;;;5089261;28;8888;-74
2024/01/26 07:30:17;;;;;;;;;8.25;8.25;;;;;;;;5085491;28;8842;-79
2024/01/26 07:32:46;;;;;;;;;7.00;7.00;;;;;;;;5089681;28;8854;-79
2024/01/26 07:35:13;;;;;;;;;7.50;7.50;;;;;;;;5089764;28;8838;-77
2024/01/26 07:37:40;;;;;;;;;4.75;4.75;;;;;;;;5091637;28;8880;-79
2024/01/26 07:40:09;;;;;;;;;7.00;7.00;;;;;;;;5075577;28;8882;-79
2024/01/26 07:42:36;;;;;;;;;11.75;8.50;;;;;;;;5089374;28;8854;-79
2024/01/26 07:45:07;;;;;;;;;6.25;6.25;;;;;;;;5089750;28;8866;-76
2024/01/26 07:47:36;;;;;;;;;11.25;6.50;;;;;;;;5090175;28;8850;-75
2024/01/26 07:50:07;;;;;;;;;6.50;5.50;;;;;;;;5089279;28;8842;-76
2024/01/26 07:52:38;;;;;;;;;7.00;7.00;;;;;;;;5090008;28;8872;-78
2024/01/26 07:55:05;;;;;;;;;7.75;6.25;;;;;;;;5088317;28;9604;-73
2024/01/26 07:57:36;;;;;;;;;5.75;5.75;;;;;;;;5090787;28;8993;-79
2024/01/26 08:00:03;;;;;;;;;9.00;7.00;;;;;;;;5090351;28;8867;-76
2024/01/26 08:02:31;;;;;;;;;8.25;7.50;;;;;;;;5090036;28;8849;-79
2024/01/26 08:04:58;;;;;;;;;6.75;5.00;;;;;;;;5087232;28;8945;-79
2024/01/26 08:07:30;;;;;;;;;5.50;5.25;;;;;;;;5088470;28;8878;-77
2024/01/26 08:09:57;;;;;;;;;8.25;7.25;;;;;;;;5086269;28;8916;-78
2024/01/26 08:12:25;;;;;;;;;12.00;7.00;;;;;;;;5090244;28;9299;-78
2024/01/26 08:14:52;;;;;;;;;3.50;3.50;;;;;;;;5088094;28;8877;-80
2024/01/26 08:17:19;;;;;;;;;8.00;7.00;;;;;;;;5089739;28;8858;-78
2024/01/26 08:19:47;;;;;;;;;9.50;8.00;;;;;;;;5089007;28;8846;-81
2024/01/26 08:22:14;;;;;;;;;9.50;7.75;;;;;;;;5088043;28;8842;-80
2024/01/26 08:24:42;;;;;;;;;8.00;8.00;;;;;;;;5085921;28;8858;-78
2024/01/26 08:27:13;;;;;;;;;7.25;7.25;;;;;;;;5085878;28;8922;-78
2024/01/26 08:29:41;;;;;;;;;8.75;8.00;;;;;;;;5089035;28;8850;-81
2024/01/26 08:32:08;;;;;;;;;9.25;8.00;;;;;;;;5084883;28;9179;-78
2024/01/26 08:34:36;;;;;;;;;7.67;7.00;;;;;;;;5085733;28;8895;-79
2024/01/26 08:37:04;;;;;;;;;8.50;7.00;;;;;;;;5086962;28;8933;-78
2024/01/26 08:39:31;;;;;;;;;7.50;7.50;;;;;;;;5079313;28;9607;-83
2024/01/26 08:42:00;;;;;;;;;8.75;8.25;;;;;;;;5085654;28;8854;-84
2024/01/26 08:44:27;;;;;;;;;4.75;4.75;;;;;;;;5089078;28;8858;-84
2024/01/26 08:46:54;;;;;;;;;8.50;6.75;;;;;;;;5089142;28;8842;-82
2024/01/26 08:49:21;;;;;;;;;6.25;6.25;;;;;;;;5089454;28;8854;-82
2024/01/26 08:51:50;;;;;;;;;7.25;7.25;;;;;;;;5089066;28;9720;-81
2024/01/26 08:54:17;;;;;;;;;7.50;6.50;;;;;;;;5089911;28;8850;-80
2024/01/26 08:56:45;;;;;;;;;7.00;7.00;;;;;;;;5088831;28;8846;-83
2024/01/26 08:59:14;;;;;;;;;5.00;4.25;;;;;;;;5089171;28;8845;-85
2024/01/26 09:01:41;;;;;;;;;6.75;6.75;;;;;;;;5090809;28;8925;-81
2024/01/26 09:04:09;;;;;;;;;7.25;5.50;;;;;;;;5096563;28;8842;-84
2024/01/26 09:06:36;;;;;;;;;4.25;4.25;;;;;;;;5086398;28;8849;-79
2024/01/26 09:09:04;;;;;;;;;6.25;6.00;;;;;;;;5098231;28;8830;-84
2024/01/26 09:11:31;;;;;;;;;6.25;6.25;;;;;;;;5095301;28;8872;-82
2024/01/26 09:13:58;;;;;;;;;6.75;6.75;;;;;;;;5083045;28;8856;-81
2024/01/26 09:16:27;;;;;;;;;6.25;6.25;;;;;;;;5091863;28;8992;-73
2024/01/26 09:18:54;;;;;;;;;4.50;4.50;;;;;;;;5100359;28;8889;-79
2024/01/26 09:21:21;;;;;;;;;6.00;5.00;;;;;;;;5097396;28;8870;-80
2024/01/26 09:23:48;;;;;;;;;8.50;6.00;;;;;;;;5091251;28;8849;-83
2024/01/26 09:26:16;;;;;;;;;5.75;4.75;;;;;;;;5084016;28;8969;-83
2024/01/26 09:28:43;;;;;;;;;4.50;4.50;;;;;;;;5087672;28;8900;-83
2024/01/26 09:31:10;;;;;;;;;4.75;4.75;;;;;;;;5085320;28;8966;-83
2024/01/26 09:33:39;;;;;;;;;4.50;4.50;;;;;;;;5088019;28;8850;-83
2024/01/26 09:36:06;;;;;;;;;5.50;5.50;;;;;;;;5088534;28;8862;-82
2024/01/26 09:38:34;;;;;;;;;1.50;1.50;;;;;;;;5078420;28;8848;-83
2024/01/26 09:41:01;;;;;;;;;2.50;1.50;;;;;;;;5076229;28;8873;-82
2024/01/26 09:43:28;;;;;;;;;1.00;1.00;;;;;;;;5088060;28;8854;-83
2024/01/26 09:45:55;;;;;;;;;0.50;0.50;;;;;;;;5088377;28;9247;-83
2024/01/26 09:48:23;;;;;;;;;1.00;1.00;;;;;;;;5088651;28;8981;-82
2024/01/26 09:50:52;;;;;;;;;0.50;0.50;;;;;;;;5090387;28;8956;-80
2024/01/26 09:53:19;;;;;;;;;0.67;0.67;;;;;;;;5078868;28;8973;-77
2024/01/26 09:55:47;;;;;;;;;0.25;0.25;;;;;;;;5088747;28;8842;-83
2024/01/26 09:58:15;;;;;;;;;0.25;0.25;;;;;;;;5086342;28;8874;-83
2024/01/26 10:00:45;;;;;;;;;0.00;0.00;;;;;;;;5079421;28;8801;-76
2024/01/26 10:03:12;;;;;;;;;2.00;0.00;;;;;;;;5081208;28;8846;-84
2024/01/26 10:05:39;;;;;;;;;0.00;0.00;;;;;;;;5081076;28;8842;-83
2024/01/26 10:08:10;;;;;;;;;0.50;0.50;;;;;;;;5086259;28;8923;-82
2024/01/26 10:10:38;;;;;;;;;1.00;1.00;;;;;;;;5080939;28;9690;-84
2024/01/26 10:13:06;;;;;;;;;0.75;0.75;;;;;;;;5084680;28;8850;-77
2024/01/26 10:15:33;;;;;;;;;0.00;0.00;;;;;;;;5088027;28;8889;-75
2024/01/26 10:18:02;;;;;;;;;0.00;0.00;;;;;;;;5088574;28;9652;-78
2024/01/26 10:20:28;;;;;;;;;0.00;0.00;;;;;;;;5087880;28;8834;-74
2024/01/26 10:22:56;;;;;;;;;2.00;0.25;;;;;;;;5087761;28;8849;-80
2024/01/26 10:25:24;;;;;;;;;0.00;0.00;;;;;;;;5087971;28;8842;-81
2024/01/26 10:27:51;;;;;;;;;1.50;0.00;;;;;;;;5080832;28;8845;-81
2024/01/26 10:30:19;;;;;;;;;2.00;0.75;;;;;;;;5081056;28;8957;-83
2024/01/26 10:32:46;;;;;;;;;3.00;1.00;;;;;;;;5087587;28;8997;-83
2024/01/26 10:35:14;;;;;;;;;0.50;0.00;;;;;;;;5088060;28;8963;-77
2024/01/26 10:37:42;;;;;;;;;1.50;0.00;;;;;;;;5080453;28;8866;-80
2024/01/26 10:40:10;;;;;;;;;2.75;1.75;;;;;;;;5086327;28;9771;-82
2024/01/26 10:42:39;;;;;;;;;0.33;0.33;;;;;;;;5087964;28;9788;-83
2024/01/26 10:45:07;;;;;;;;;2.00;2.00;;;;;;;;5090788;28;9577;-80
2024/01/26 10:47:37;;;;;;;;;1.25;1.25;;;;;;;;5092498;28;8903;-78
2024/01/26 10:50:06;;;;;;;;;0.00;0.00;;;;;;;;5093239;28;8920;-83
2024/01/26 10:52:37;;;;;;;;;4.00;1.50;;;;;;;;5094904;28;8842;-82
2024/01/26 10:55:05;;;;;;;;;2.00;0.00;;;;;;;;5097001;28;8819;-83
2024/01/26 10:57:32;;;;;;;;;3.25;1.25;;;;;;;;5098588;28;8881;-78
2024/01/26 11:00:01;;;;;;;;;1.00;1.00;;;;;;;;5095049;28;8982;-82
2024/01/26 11:02:32;;;;;;;;;1.00;1.00;;;;;;;;5096990;28;8794;-82
2024/01/26 11:05:00;;;;;;;;;5.00;0.25;;;;;;;;5096361;28;8858;-78
2024/01/26 11:07:27;;;;;;;;;1.50;0.00;;;;;;;;5095066;28;8846;-75
2024/01/26 11:10:01;;;;;;;;;0.00;0.00;;;;;;;;5091161;28;8848;-81
2024/01/26 11:12:31;;;;;;;;;1.00;0.75;;;;;;;;5088413;28;9664;-77
2024/01/26 11:15:16;;;;;;;;;0.00;0.00;;;;;;;;5091481;28;9674;-75
2024/01/26 11:17:45;;;;;;;;;0.00;0.00;;;;;;;;5089466;28;8885;-76
2024/01/26 11:20:18;;;;;;;;;0.00;0.00;;;;;;;;5090715;28;8888;-76
2024/01/26 11:22:45;;;;;;;;;0.00;0.00;;;;;;;;5088782;28;8853;-75
2024/01/26 11:25:24;;;;;;;;;0.00;0.00;;;;;;;;5090099;28;8946;-78
2024/01/26 11:28:00;;;;;;;;;1.00;0.00;;;;;;;;5089380;28;8846;-76
2024/01/26 11:30:29;;;;;;;;;0.25;0.25;;;;;;;;5088976;28;8835;-75
2024/01/26 11:32:56;;;;;;;;;1.00;0.00;;;;;;;;5090160;28;8850;-76
2024/01/26 11:35:24;;;;;;;;;0.00;0.00;;;;;;;;5090349;28;8838;-74
2024/01/26 11:37:53;;;;;;;;;0.00;0.00;;;;;;;;5089789;28;8943;-75
2024/01/26 11:40:25;;;;;;;;;0.50;0.00;;;;;;;;5078700;28;8930;-74
2024/01/26 11:42:52;;;;;;;;;0.00;0.00;;;;;;;;5068716;28;8976;-75
2024/01/26 11:45:43;;;;;;;;;0.00;0.00;;;;;;;;5068310;28;8878;-73
2024/01/26 11:48:11;;;;;;;;;0.50;0.00;;;;;;;;5088292;28;8996;-73
2024/01/26 11:50:40;;;;;;;;;0.00;0.00;;;;;;;;5088963;28;8854;-74
2024/01/26 11:53:07;;;;;;;;;4.00;0.00;;;;;;;;5088611;28;8854;-75
2024/01/26 11:55:39;;;;;;;;;0.25;0.00;;;;;;;;5089006;28;8858;-78
2024/01/26 11:58:06;;;;;;;;;0.00;0.00;;;;;;;;5085995;28;9654;-73
2024/01/26 12:00:35;;;;;;;;;0.00;0.00;;;;;;;;5086523;28;8807;-76
2024/01/26 12:03:07;;;;;;;;;1.25;0.00;;;;;;;;5089112;28;9683;-80
2024/01/26 12:05:38;;;;;;;;;0.50;0.00;;;;;;;;5087825;28;8846;-76
2024/01/26 12:08:07;;;;;;;;;2.00;0.75;;;;;;;;5088676;28;9666;-72
2024/01/26 12:10:35;;;;;;;;;1.00;1.00;;;;;;;;5089334;28;8972;-77
2024/01/26 12:13:06;;;;;;;;;1.50;0.00;;;;;;;;5088737;28;8961;-77
2024/01/26 12:15:39;;;;;;;;;0.50;0.25;;;;;;;;5089449;28;8862;-74
2024/01/26 12:18:10;;;;;;;;;0.25;0.25;;;;;;;;5089221;28;8940;-77
2024/01/26 12:20:39;;;;;;;;;0.00;0.00;;;;;;;;5089028;28;8858;-80
2024/01/26 12:23:14;;;;;;;;;0.50;0.50;;;;;;;;5084481;28;8880;-80
2024/01/26 12:25:42;;;;;;;;;2.25;0.00;;;;;;;;5084270;28;8861;-80
2024/01/26 12:28:09;;;;;;;;;1.00;0.00;;;;;;;;5088877;28;8838;-82
2024/01/26 12:30:36;;;;;;;;;0.50;0.00;;;;;;;;5088181;28;8797;-77
2024/01/26 12:33:07;;;;;;;;;0.00;0.00;;;;;;;;5090067;28;8839;-78
2024/01/26 12:35:39;;;;;;;;;0.00;0.00;;;;;;;;5089448;28;8966;-78
2024/01/26 12:38:07;;;;;;;;;0.00;0.00;;;;;;;;5089704;28;8939;-76
2024/01/26 12:40:37;;;;;;;;;0.00;0.00;;;;;;;;5058940;28;8888;-77
2024/01/26 12:43:04;;;;;;;;;1.75;0.00;;;;;;;;5091264;28;8900;-78
2024/01/26 12:45:31;;;;;;;;;0.00;0.00;;;;;;;;5089993;28;8846;-82
2024/01/26 12:48:01;;;;;;;;;0.00;0.00;;;;;;;;5091183;28;8854;-81
2024/01/26 12:50:29;;;;;;;;;0.00;0.00;;;;;;;;5090236;28;8850;-83
2024/01/26 12:53:00;;;;;;;;;0.00;0.00;;;;;;;;5090572;28;8842;-79
2024/01/26 12:55:27;;;;;;;;;0.00;0.00;;;;;;;;5091624;28;8970;-79
2024/01/26 12:57:55;;;;;;;;;0.00;0.00;;;;;;;;5088772;28;8891;-72
2024/01/26 13:00:24;;;;;;;;;0.00;0.00;;;;;;;;5088116;28;8862;-72
2024/01/26 13:02:51;;;;;;;;;0.00;0.00;;;;;;;;5087517;28;8860;-79
2024/01/26 13:05:20;;;;;;;;;0.00;0.00;;;;;;;;5088569;28;8862;-83
2024/01/26 13:07:48;;;;;;;;;0.00;0.00;;;;;;;;5087145;28;8858;-79
2024/01/26 13:10:16;;;;;;;;;0.75;0.00;;;;;;;;5090315;28;8850;-81
2024/01/26 13:12:44;;;;;;;;;0.00;0.00;;;;;;;;5087482;28;8862;-80
2024/01/26 13:15:11;;;;;;;;;0.00;0.00;;;;;;;;5088090;28;8869;-81
2024/01/26 13:17:38;;;;;;;;;0.25;0.00;;;;;;;;5087807;28;8850;-78
2024/01/26 13:20:08;;;;;;;;;0.00;0.00;;;;;;;;5088239;28;8846;-76
2024/01/26 13:22:36;;;;;;;;;0.00;0.00;;;;;;;;5087759;28;8835;-80
2024/01/26 13:25:05;;;;;;;;;0.00;0.00;;;;;;;;5086135;28;8980;-82
2024/01/26 13:27:34;;;;;;;;;0.00;0.00;;;;;;;;5088153;28;8845;-81
2024/01/26 13:30:02;;;;;;;;;0.00;0.00;;;;;;;;5089053;28;9671;-77
2024/01/26 13:32:29;;;;;;;;;0.00;0.00;;;;;;;;5087442;28;8811;-80
2024/01/26 13:34:56;;;;;;;;;0.00;0.00;;;;;;;;5087909;28;8870;-82
2024/01/26 13:37:24;;;;;;;;;1.00;0.00;;;;;;;;5084824;28;8971;-80
2024/01/26 13:39:54;;;;;;;;;1.00;0.00;;;;;;;;5078411;28;8947;-79
2024/01/26 13:42:23;;;;;;;;;0.00;0.00;;;;;;;;5091504;28;9001;-79
2024/01/26 13:44:53;;;;;;;;;0.00;0.00;;;;;;;;5099206;28;8860;-77
2024/01/26 13:47:20;;;;;;;;;0.50;0.00;;;;;;;;5091630;28;8847;-77
2024/01/26 13:49:52;;;;;;;;;0.00;0.00;;;;;;;;5088518;28;8834;-80
2024/01/26 13:52:19;;;;;;;;;0.00;0.00;;;;;;;;5077006;28;8854;-83
2024/01/26 13:54:46;;;;;;;;;0.00;0.00;;;;;;;;5087884;28;8839;-77
2024/01/26 13:57:15;;;;;;;;;0.00;0.00;;;;;;;;5088579;28;8847;-76
2024/01/26 13:59:42;;;;;;;;;0.00;0.00;;;;;;;;5087858;28;8842;-81
2024/01/26 14:02:10;;;;;;;;;0.25;0.00;;;;;;;;5087229;28;8810;-73
2024/01/26 14:04:39;;;;;;;;;0.00;0.00;;;;;;;;5085497;28;8911;-80
2024/01/26 14:07:06;;;;;;;;;3.25;0.50;;;;;;;;5088443;28;8891;-82
2024/01/26 14:09:34;;;;;;;;;0.00;0.00;;;;;;;;5087614;28;8843;-80
2024/01/26 14:12:03;;;;;;;;;0.00;0.00;;;;;;;;5089320;28;8850;-80
2024/01/26 14:14:31;;;;;;;;;0.00;0.00;;;;;;;;5089148;28;8977;-81
2024/01/26 14:16:58;;;;;;;;;0.75;0.00;;;;;;;;5086222;28;8862;-77
2024/01/26 14:19:26;;;;;;;;;1.00;0.00;;;;;;;;5089549;28;8866;-79
2024/01/26 14:21:55;;;;;;;;;0.00;0.00;;;;;;;;5091876;28;8856;-79
2024/01/26 14:24:22;;;;;;;;;0.00;0.00;;;;;;;;5089810;28;8857;-81
2024/01/26 14:26:49;;;;;;;;;0.00;0.00;;;;;;;;5090681;28;8872;-82
2024/01/26 14:29:17;;;;;;;;;0.00;0.00;;;;;;;;5093396;28;8875;-80
2024/01/26 14:31:45;;;;;;;;;0.00;0.00;;;;;;;;5094894;28;8798;-75
2024/01/26 14:34:13;;;;;;;;;0.75;0.00;;;;;;;;5097220;28;8842;-76
2024/01/26 14:36:42;;;;;;;;;1.25;0.00;;;;;;;;5096619;28;8846;-78
2024/01/26 14:39:11;;;;;;;;;1.00;0.00;;;;;;;;5088799;28;8844;-78
2024/01/26 14:41:38;;;;;;;;;1.50;1.00;;;;;;;;5089472;28;8863;-79
2024/01/26 14:44:08;;;;;;;;;0.00;0.00;;;;;;;;5095930;28;8871;-75
2024/01/26 14:46:35;;;;;;;;;0.00;0.00;;;;;;;;5095259;28;8861;-75
2024/01/26 14:49:04;;;;;;;;;0.00;0.00;;;;;;;;5092959;28;8969;-74
2024/01/26 14:51:33;;;;;;;;;0.00;0.00;;;;;;;;5090980;28;8953;-80